sensor_id;sensor_type;location;lat;lon;timestamp;pressure;altitude;pressure_sealevel;temperature;humidity
6144;BME280;3103;49.492;8.474;2022-09-09T00:04:00;100072.63;;;19.52;64.06
6144;BME280;3103;49.492;8.474;2022-09-09T00:06:50;100080.31;;;19.50;64.46
6144;BME280;3103;49.492;8.474;2022-09-09T00:09:25;100062.53;;;19.52;64.17
6144;BME280;3103;49.492;8.474;2022-09-09T00:14:55;100078.09;;;19.38;65.18
6144;BME280;3103;49.492;8.474;2022-09-09T00:17:33;100060.56;;;19.44;64.98
6144;BME280;3103;49.492;8.474;2022-09-09T00:20:12;100068.72;;;19.44;65.16
6144;BME280;3103;49.492;8.474;2022-09-09T00:22:45;100066.16;;;19.62;64.68
6144;BME280;3103;49.492;8.474;2022-09-09T00:25:21;100062.84;;;19.51;64.99
6144;BME280;3103;49.492;8.474;2022-09-09T00:27:50;100057.50;;;19.46;65.44
6144;BME280;3103;49.492;8.474;2022-09-09T00:30:23;100058.94;;;19.43;65.67
6144;BME280;3103;49.492;8.474;2022-09-09T00:33:01;100059.63;;;19.49;65.63
6144;BME280;3103;49.492;8.474;2022-09-09T00:35:40;100062.25;;;19.40;66.10
6144;BME280;3103;49.492;8.474;2022-09-09T00:38:15;100057.69;;;19.49;65.84
6144;BME280;3103;49.492;8.474;2022-09-09T00:43:30;100052.31;;;19.22;67.23
6144;BME280;3103;49.492;8.474;2022-09-09T00:49:16;100048.34;;;19.28;67.27
6144;BME280;3103;49.492;8.474;2022-09-09T00:54:56;100054.88;;;19.41;66.52
6144;BME280;3103;49.492;8.474;2022-09-09T00:57:22;100056.94;;;19.35;67.02
6144;BME280;3103;49.492;8.474;2022-09-09T01:05:37;100053.94;;;19.23;67.49
6144;BME280;3103;49.492;8.474;2022-09-09T01:08:24;100058.16;;;19.29;67.06
6144;BME280;3103;49.492;8.474;2022-09-09T01:10:56;100051.91;;;19.28;66.96
6144;BME280;3103;49.492;8.474;2022-09-09T01:13:35;100045.94;;;19.26;66.76
6144;BME280;3103;49.492;8.474;2022-09-09T01:16:08;100049.72;;;19.17;67.15
6144;BME280;3103;49.492;8.474;2022-09-09T01:18:43;100045.47;;;19.11;67.65
6144;BME280;3103;49.492;8.474;2022-09-09T01:26:39;100059.31;;;19.14;67.54
6144;BME280;3103;49.492;8.474;2022-09-09T01:29:15;100067.25;;;19.24;67.29
6144;BME280;3103;49.492;8.474;2022-09-09T01:32:01;100075.41;;;19.24;67.57
6144;BME280;3103;49.492;8.474;2022-09-09T01:34:36;100065.31;;;19.25;67.91
6144;BME280;3103;49.492;8.474;2022-09-09T01:37:07;100064.41;;;19.30;67.52
6144;BME280;3103;49.492;8.474;2022-09-09T01:39:39;100063.88;;;18.91;69.48
6144;BME280;3103;49.492;8.474;2022-09-09T01:42:13;100066.09;;;18.76;70.41
6144;BME280;3103;49.492;8.474;2022-09-09T01:44:42;100066.78;;;18.81;70.46
6144;BME280;3103;49.492;8.474;2022-09-09T01:47:09;100066.78;;;18.81;70.47
6144;BME280;3103;49.492;8.474;2022-09-09T01:49:52;100067.69;;;18.90;69.93
6144;BME280;3103;49.492;8.474;2022-09-09T01:52:24;100066.78;;;18.81;70.31
6144;BME280;3103;49.492;8.474;2022-09-09T01:54:50;100061.03;;;18.83;70.10
6144;BME280;3103;49.492;8.474;2022-09-09T01:57:28;100061.66;;;18.80;70.51
6144;BME280;3103;49.492;8.474;2022-09-09T02:00:07;100059.63;;;18.85;70.19
6144;BME280;3103;49.492;8.474;2022-09-09T02:03:00;100065.28;;;18.89;70.17
6144;BME280;3103;49.492;8.474;2022-09-09T02:08:49;100064.06;;;18.81;70.46
6144;BME280;3103;49.492;8.474;2022-09-09T02:11:23;100070.13;;;18.78;70.93
6144;BME280;3103;49.492;8.474;2022-09-09T02:14:10;100073.34;;;18.94;70.21
6144;BME280;3103;49.492;8.474;2022-09-09T02:16:52;100080.38;;;18.95;70.23
6144;BME280;3103;49.492;8.474;2022-09-09T02:19:30;100071.03;;;19.01;70.12
6144;BME280;3103;49.492;8.474;2022-09-09T02:22:19;100067.28;;;18.97;70.05
6144;BME280;3103;49.492;8.474;2022-09-09T02:24:49;100065.66;;;18.82;70.59
6144;BME280;3103;49.492;8.474;2022-09-09T02:27:22;100069.50;;;18.95;70.18
6144;BME280;3103;49.492;8.474;2022-09-09T02:29:51;100059.53;;;18.90;70.69
6144;BME280;3103;49.492;8.474;2022-09-09T02:32:32;100062.06;;;18.87;70.55
6144;BME280;3103;49.492;8.474;2022-09-09T02:35:08;100071.72;;;18.79;70.56
6144;BME280;3103;49.492;8.474;2022-09-09T02:37:39;100066.16;;;18.84;70.04
6144;BME280;3103;49.492;8.474;2022-09-09T02:40:09;100068.69;;;18.67;70.78
6144;BME280;3103;49.492;8.474;2022-09-09T02:42:41;100067.97;;;18.61;71.31
6144;BME280;3103;49.492;8.474;2022-09-09T02:45:10;100071.06;;;18.55;71.51
6144;BME280;3103;49.492;8.474;2022-09-09T02:47:44;100074.53;;;18.60;71.27
6144;BME280;3103;49.492;8.474;2022-09-09T02:50:19;100075.09;;;18.57;71.26
6144;BME280;3103;49.492;8.474;2022-09-09T02:55:29;100067.53;;;18.54;71.35
6144;BME280;3103;49.492;8.474;2022-09-09T02:58:04;100056.59;;;18.59;70.97
6144;BME280;3103;49.492;8.474;2022-09-09T03:00:35;100057.38;;;18.46;71.84
6144;BME280;3103;49.492;8.474;2022-09-09T03:03:07;100051.44;;;18.44;72.09
6144;BME280;3103;49.492;8.474;2022-09-09T03:05:37;100050.91;;;18.56;71.24
6144;BME280;3103;49.492;8.474;2022-09-09T03:08:04;100049.00;;;18.43;71.82
6144;BME280;3103;49.492;8.474;2022-09-09T03:10:32;100049.22;;;18.60;71.22
6144;BME280;3103;49.492;8.474;2022-09-09T03:12:59;100051.44;;;18.72;70.25
6144;BME280;3103;49.492;8.474;2022-09-09T03:15:30;100058.22;;;18.74;69.60
6144;BME280;3103;49.492;8.474;2022-09-09T03:17:58;100060.34;;;18.77;70.01
6144;BME280;3103;49.492;8.474;2022-09-09T03:20:27;100059.00;;;18.61;70.63
6144;BME280;3103;49.492;8.474;2022-09-09T03:22:55;100062.00;;;18.46;71.29
6144;BME280;3103;49.492;8.474;2022-09-09T03:25:23;100060.16;;;18.27;72.09
6144;BME280;3103;49.492;8.474;2022-09-09T03:27:54;100057.44;;;18.27;72.66
6144;BME280;3103;49.492;8.474;2022-09-09T03:30:24;100059.16;;;18.37;71.76
6144;BME280;3103;49.492;8.474;2022-09-09T03:32:53;100057.75;;;18.39;71.72
6144;BME280;3103;49.492;8.474;2022-09-09T03:35:20;100059.84;;;18.29;71.83
6144;BME280;3103;49.492;8.474;2022-09-09T03:37:46;100060.09;;;18.46;71.17
6144;BME280;3103;49.492;8.474;2022-09-09T03:40:14;100056.94;;;18.39;71.05
6144;BME280;3103;49.492;8.474;2022-09-09T03:42:44;100055.72;;;18.18;71.78
6144;BME280;3103;49.492;8.474;2022-09-09T03:45:11;100051.06;;;18.04;73.02
6144;BME280;3103;49.492;8.474;2022-09-09T03:47:39;100056.53;;;18.18;72.05
6144;BME280;3103;49.492;8.474;2022-09-09T03:50:07;100057.00;;;18.06;72.66
6144;BME280;3103;49.492;8.474;2022-09-09T03:52:42;100053.09;;;18.26;71.44
6144;BME280;3103;49.492;8.474;2022-09-09T03:55:15;100062.66;;;18.24;71.31
6144;BME280;3103;49.492;8.474;2022-09-09T03:57:42;100055.28;;;18.10;71.65
6144;BME280;3103;49.492;8.474;2022-09-09T04:00:09;100061.50;;;17.97;72.08
6144;BME280;3103;49.492;8.474;2022-09-09T04:02:43;100075.19;;;17.92;72.33
6144;BME280;3103;49.492;8.474;2022-09-09T04:05:13;100071.00;;;17.62;73.60
6144;BME280;3103;49.492;8.474;2022-09-09T04:07:42;100063.44;;;17.78;73.81
6144;BME280;3103;49.492;8.474;2022-09-09T04:10:10;100062.19;;;17.70;73.70
6144;BME280;3103;49.492;8.474;2022-09-09T04:12:39;100055.34;;;17.73;73.48
6144;BME280;3103;49.492;8.474;2022-09-09T04:15:06;100049.56;;;17.61;73.95
6144;BME280;3103;49.492;8.474;2022-09-09T04:17:35;100059.69;;;17.55;74.59
6144;BME280;3103;49.492;8.474;2022-09-09T04:20:03;100059.97;;;17.54;75.02
6144;BME280;3103;49.492;8.474;2022-09-09T04:22:30;100057.81;;;17.74;74.05
6144;BME280;3103;49.492;8.474;2022-09-09T04:24:57;100065.63;;;17.95;72.96
6144;BME280;3103;49.492;8.474;2022-09-09T04:27:24;100066.50;;;17.90;72.94
6144;BME280;3103;49.492;8.474;2022-09-09T04:29:51;100068.28;;;17.81;73.13
6144;BME280;3103;49.492;8.474;2022-09-09T04:32:17;100067.03;;;17.73;73.89
6144;BME280;3103;49.492;8.474;2022-09-09T04:34:45;100068.28;;;17.62;74.50
6144;BME280;3103;49.492;8.474;2022-09-09T04:37:13;100068.28;;;17.81;73.81
6144;BME280;3103;49.492;8.474;2022-09-09T04:39:41;100074.03;;;17.79;73.67
6144;BME280;3103;49.492;8.474;2022-09-09T04:42:07;100075.78;;;17.89;73.08
6144;BME280;3103;49.492;8.474;2022-09-09T04:44:35;100082.97;;;17.80;73.38
6144;BME280;3103;49.492;8.474;2022-09-09T04:47:02;100089.81;;;17.77;73.55
6144;BME280;3103;49.492;8.474;2022-09-09T04:49:29;100085.47;;;17.76;73.26
6144;BME280;3103;49.492;8.474;2022-09-09T04:51:58;100088.19;;;17.76;73.45
6144;BME280;3103;49.492;8.474;2022-09-09T04:54:24;100088.25;;;17.90;72.93
6144;BME280;3103;49.492;8.474;2022-09-09T04:56:52;100088.16;;;17.95;72.11
6144;BME280;3103;49.492;8.474;2022-09-09T04:59:18;100088.25;;;17.90;72.40
6144;BME280;3103;49.492;8.474;2022-09-09T05:01:49;100087.25;;;18.00;71.82
6144;BME280;3103;49.492;8.474;2022-09-09T05:04:17;100096.66;;;18.07;71.58
6144;BME280;3103;49.492;8.474;2022-09-09T05:06:43;100098.44;;;17.98;72.22
6144;BME280;3103;49.492;8.474;2022-09-09T05:09:11;100086.00;;;18.11;71.21
6144;BME280;3103;49.492;8.474;2022-09-09T05:11:38;100095.88;;;18.07;71.34
6144;BME280;3103;49.492;8.474;2022-09-09T05:14:15;100094.75;;;18.08;71.50
6144;BME280;3103;49.492;8.474;2022-09-09T05:16:42;100089.19;;;17.99;71.39
6144;BME280;3103;49.492;8.474;2022-09-09T05:19:11;100099.03;;;17.95;71.74
6144;BME280;3103;49.492;8.474;2022-09-09T05:21:43;100103.06;;;17.98;71.53
6144;BME280;3103;49.492;8.474;2022-09-09T05:24:11;100103.81;;;17.85;72.06
6144;BME280;3103;49.492;8.474;2022-09-09T05:26:39;100104.31;;;17.87;72.05
6144;BME280;3103;49.492;8.474;2022-09-09T05:29:06;100110.56;;;17.87;71.82
6144;BME280;3103;49.492;8.474;2022-09-09T05:31:34;100109.53;;;18.02;71.62
6144;BME280;3103;49.492;8.474;2022-09-09T05:34:07;100114.16;;;18.01;71.82
6144;BME280;3103;49.492;8.474;2022-09-09T05:36:34;100124.34;;;18.09;71.57
6144;BME280;3103;49.492;8.474;2022-09-09T05:39:01;100122.53;;;18.05;71.62
6144;BME280;3103;49.492;8.474;2022-09-09T05:41:30;100124.81;;;17.98;71.96
6144;BME280;3103;49.492;8.474;2022-09-09T05:44:00;100114.97;;;18.02;72.03
6144;BME280;3103;49.492;8.474;2022-09-09T05:46:28;100121.88;;;17.94;72.29
6144;BME280;3103;49.492;8.474;2022-09-09T05:48:55;100120.63;;;18.05;72.14
6144;BME280;3103;49.492;8.474;2022-09-09T05:51:28;100123.03;;;18.07;71.67
6144;BME280;3103;49.492;8.474;2022-09-09T05:53:58;100124.41;;;17.91;72.58
6144;BME280;3103;49.492;8.474;2022-09-09T05:56:29;100125.41;;;17.95;72.88
6144;BME280;3103;49.492;8.474;2022-09-09T05:58:58;100132.47;;;17.96;73.03
6144;BME280;3103;49.492;8.474;2022-09-09T06:01:29;100141.88;;;18.03;72.03
6144;BME280;3103;49.492;8.474;2022-09-09T06:03:57;100155.97;;;18.05;72.09
6144;BME280;3103;49.492;8.474;2022-09-09T06:06:27;100160.59;;;18.05;72.15
6144;BME280;3103;49.492;8.474;2022-09-09T06:08:57;100148.25;;;17.94;72.82
6144;BME280;3103;49.492;8.474;2022-09-09T06:11:31;100147.81;;;17.87;73.02
6144;BME280;3103;49.492;8.474;2022-09-09T06:13:59;100145.63;;;17.89;73.14
6144;BME280;3103;49.492;8.474;2022-09-09T06:16:29;100145.63;;;17.89;73.22
6144;BME280;3103;49.492;8.474;2022-09-09T06:18:57;100138.91;;;18.00;72.33
6144;BME280;3103;49.492;8.474;2022-09-09T06:21:27;100145.09;;;17.87;72.48
6144;BME280;3103;49.492;8.474;2022-09-09T06:23:57;100136.59;;;17.93;72.81
6144;BME280;3103;49.492;8.474;2022-09-09T06:26:38;100137.38;;;17.94;72.89
6144;BME280;3103;49.492;8.474;2022-09-09T06:29:10;100140.97;;;18.08;72.56
6144;BME280;3103;49.492;8.474;2022-09-09T06:31:38;100142.16;;;18.34;71.34
6144;BME280;3103;49.492;8.474;2022-09-09T06:34:12;100133.03;;;18.44;70.44
6144;BME280;3103;49.492;8.474;2022-09-09T06:36:43;100133.63;;;18.41;70.57
6144;BME280;3103;49.492;8.474;2022-09-09T06:39:13;100144.94;;;18.29;71.00
6144;BME280;3103;49.492;8.474;2022-09-09T06:41:42;100160.16;;;18.17;71.97
6144;BME280;3103;49.492;8.474;2022-09-09T06:44:38;100156.44;;;18.26;71.48
6144;BME280;3103;49.492;8.474;2022-09-09T06:47:08;100160.66;;;18.19;71.88
6144;BME280;3103;49.492;8.474;2022-09-09T06:49:35;100157.19;;;18.13;72.45
6144;BME280;3103;49.492;8.474;2022-09-09T06:52:06;100162.47;;;18.23;71.97
6144;BME280;3103;49.492;8.474;2022-09-09T06:54:33;100158.28;;;18.31;71.58
6144;BME280;3103;49.492;8.474;2022-09-09T06:57:01;100159.69;;;18.42;70.68
6144;BME280;3103;49.492;8.474;2022-09-09T06:59:49;100160.31;;;18.39;71.17
6144;BME280;3103;49.492;8.474;2022-09-09T07:02:16;100145.09;;;18.38;71.64
6144;BME280;3103;49.492;8.474;2022-09-09T07:04:43;100159.69;;;18.42;71.15
6144;BME280;3103;49.492;8.474;2022-09-09T07:07:10;100160.94;;;18.50;70.78
6144;BME280;3103;49.492;8.474;2022-09-09T07:09:40;100157.63;;;18.53;70.67
6144;BME280;3103;49.492;8.474;2022-09-09T07:12:08;100163.94;;;18.34;70.92
6144;BME280;3103;49.492;8.474;2022-09-09T07:14:38;100156.91;;;18.47;71.10
6144;BME280;3103;49.492;8.474;2022-09-09T07:17:07;100150.94;;;18.78;69.27
6144;BME280;3103;49.492;8.474;2022-09-09T07:19:37;100160.56;;;19.03;68.12
6144;BME280;3103;49.492;8.474;2022-09-09T07:22:05;100154.50;;;19.06;67.56
6144;BME280;3103;49.492;8.474;2022-09-09T07:24:33;100155.59;;;18.77;69.12
6144;BME280;3103;49.492;8.474;2022-09-09T07:27:00;100166.03;;;18.70;69.19
6144;BME280;3103;49.492;8.474;2022-09-09T07:29:28;100163.63;;;18.68;69.88
6144;BME280;3103;49.492;8.474;2022-09-09T07:31:55;100158.22;;;18.82;68.85
6144;BME280;3103;49.492;8.474;2022-09-09T07:34:26;100164.16;;;18.84;68.91
6144;BME280;3103;49.492;8.474;2022-09-09T07:36:53;100150.16;;;18.91;68.42
6144;BME280;3103;49.492;8.474;2022-09-09T07:39:21;100144.41;;;18.92;68.39
6144;BME280;3103;49.492;8.474;2022-09-09T07:41:51;100155.00;;;18.94;68.81
6144;BME280;3103;49.492;8.474;2022-09-09T07:44:23;100162.25;;;18.98;68.50
6144;BME280;3103;49.492;8.474;2022-09-09T07:46:58;100158.03;;;19.06;68.15
6144;BME280;3103;49.492;8.474;2022-09-09T07:49:31;100151.78;;;18.92;68.66
6144;BME280;3103;49.492;8.474;2022-09-09T07:52:00;100161.38;;;19.03;68.38
6144;BME280;3103;49.492;8.474;2022-09-09T07:54:28;100159.94;;;19.06;68.52
6144;BME280;3103;49.492;8.474;2022-09-09T07:56:54;100171.66;;;19.34;67.05
6144;BME280;3103;49.492;8.474;2022-09-09T07:59:25;100171.03;;;19.37;66.74
6144;BME280;3103;49.492;8.474;2022-09-09T08:01:53;100168.13;;;19.33;66.88
6144;BME280;3103;49.492;8.474;2022-09-09T08:04:25;100171.72;;;19.42;66.73
6144;BME280;3103;49.492;8.474;2022-09-09T08:06:55;100182.63;;;19.42;66.30
6144;BME280;3103;49.492;8.474;2022-09-09T08:09:26;100184.34;;;19.38;66.65
6144;BME280;3103;49.492;8.474;2022-09-09T08:12:03;100184.16;;;19.35;66.67
6144;BME280;3103;49.492;8.474;2022-09-09T08:14:32;100189.28;;;19.36;66.90
6144;BME280;3103;49.492;8.474;2022-09-09T08:16:59;100185.06;;;19.30;68.12
6144;BME280;3103;49.492;8.474;2022-09-09T08:19:27;100184.84;;;19.40;67.83
6144;BME280;3103;49.492;8.474;2022-09-09T08:21:57;100183.63;;;19.46;67.63
6144;BME280;3103;49.492;8.474;2022-09-09T08:24:24;100192.13;;;19.45;68.45
6144;BME280;3103;49.492;8.474;2022-09-09T08:26:51;100188.47;;;19.36;68.83
6144;BME280;3103;49.492;8.474;2022-09-09T08:29:22;100189.28;;;19.36;68.88
6144;BME280;3103;49.492;8.474;2022-09-09T08:31:54;100175.56;;;19.41;69.27
6144;BME280;3103;49.492;8.474;2022-09-09T08:34:21;100180.22;;;19.54;68.54
6144;BME280;3103;49.492;8.474;2022-09-09T08:36:50;100189.78;;;19.66;68.32
6144;BME280;3103;49.492;8.474;2022-09-09T08:39:22;100188.69;;;19.67;67.87
6144;BME280;3103;49.492;8.474;2022-09-09T08:47:45;100200.78;;;19.74;67.01
6144;BME280;3103;49.492;8.474;2022-09-09T08:50:29;100193.09;;;19.76;66.45
6144;BME280;3103;49.492;8.474;2022-09-09T08:53:12;100192.38;;;19.84;66.43
6144;BME280;3103;49.492;8.474;2022-09-09T08:55:45;100188.13;;;19.92;66.03
6144;BME280;3103;49.492;8.474;2022-09-09T08:58:16;100197.53;;;19.86;65.99
6144;BME280;3103;49.492;8.474;2022-09-09T09:03:48;100197.28;;;19.96;65.39
6144;BME280;3103;49.492;8.474;2022-09-09T09:11:57;100203.41;;;20.15;64.39
6144;BME280;3103;49.492;8.474;2022-09-09T09:14:36;100197.81;;;20.21;63.85
6144;BME280;3103;49.492;8.474;2022-09-09T09:17:12;100202.16;;;20.22;63.96
6144;BME280;3103;49.492;8.474;2022-09-09T09:19:42;100191.41;;;20.25;63.87
6144;BME280;3103;49.492;8.474;2022-09-09T09:22:18;100194.47;;;20.24;64.38
6144;BME280;3103;49.492;8.474;2022-09-09T09:30:17;100198.44;;;20.40;63.72
6144;BME280;3103;49.492;8.474;2022-09-09T09:35:49;100188.31;;;20.40;63.64
6144;BME280;3103;49.492;8.474;2022-09-09T09:38:23;100178.34;;;20.36;62.63
6144;BME280;3103;49.492;8.474;2022-09-09T09:41:11;100179.13;;;20.28;64.18
6144;BME280;3103;49.492;8.474;2022-09-09T09:43:40;100185.66;;;20.27;64.64
6144;BME280;3103;49.492;8.474;2022-09-09T09:46:21;100192.81;;;20.14;63.17
6144;BME280;3103;49.492;8.474;2022-09-09T09:49:01;100191.19;;;20.13;62.72
6144;BME280;3103;49.492;8.474;2022-09-09T09:51:31;100204.13;;;20.07;62.31
6144;BME280;3103;49.492;8.474;2022-09-09T09:54:24;100199.94;;;19.88;62.48
6144;BME280;3103;49.492;8.474;2022-09-09T09:57:16;100207.81;;;19.89;63.08
6144;BME280;3103;49.492;8.474;2022-09-09T09:59:45;100220.00;;;20.05;63.54
6144;BME280;3103;49.492;8.474;2022-09-09T10:02:25;100218.88;;;20.06;65.36
6144;BME280;3103;49.492;8.474;2022-09-09T10:05:04;100214.72;;;19.73;68.51
6144;BME280;3103;49.492;8.474;2022-09-09T10:07:34;100213.94;;;19.59;69.63
6144;BME280;3103;49.492;8.474;2022-09-09T10:10:01;100214.78;;;19.54;70.03
6144;BME280;3103;49.492;8.474;2022-09-09T10:12:44;100215.22;;;19.75;69.01
6144;BME280;3103;49.492;8.474;2022-09-09T10:15:29;100213.91;;;19.86;67.85
6144;BME280;3103;49.492;8.474;2022-09-09T10:20:39;100193.72;;;19.73;67.18
6144;BME280;3103;49.492;8.474;2022-09-09T10:36:49;100180.34;;;20.66;64.69
6144;BME280;3103;49.492;8.474;2022-09-09T10:39:37;100179.75;;;20.47;66.62
6144;BME280;3103;49.492;8.474;2022-09-09T10:42:15;100176.88;;;20.52;66.80
6144;BME280;3103;49.492;8.474;2022-09-09T10:56:21;100152.34;;;20.92;63.16
6144;BME280;3103;49.492;8.474;2022-09-09T10:59:04;100149.88;;;21.13;61.95
6144;BME280;3103;49.492;8.474;2022-09-09T11:01:45;100145.22;;;21.22;62.00
6144;BME280;3103;49.492;8.474;2022-09-09T11:06:54;100136.06;;;21.18;59.43
6144;BME280;3103;49.492;8.474;2022-09-09T11:09:24;100135.69;;;21.02;60.97
6144;BME280;3103;49.492;8.474;2022-09-09T11:11:57;100137.16;;;21.08;58.82
6144;BME280;3103;49.492;8.474;2022-09-09T11:14:45;100134.94;;;21.19;59.13
6144;BME280;3103;49.492;8.474;2022-09-09T11:17:18;100137.03;;;21.13;58.23
6144;BME280;3103;49.492;8.474;2022-09-09T11:19:47;100140.16;;;21.38;58.00
6144;BME280;3103;49.492;8.474;2022-09-09T11:22:30;100134.50;;;21.25;58.25
6144;BME280;3103;49.492;8.474;2022-09-09T11:25:21;100136.06;;;21.18;57.92
6144;BME280;3103;49.492;8.474;2022-09-09T11:28:06;100126.31;;;21.25;57.38
6144;BME280;3103;49.492;8.474;2022-09-09T11:38:51;100138.25;;;21.47;56.04
6144;BME280;3103;49.492;8.474;2022-09-09T11:41:20;100127.47;;;21.42;55.25
6144;BME280;3103;49.492;8.474;2022-09-09T11:43:49;100130.66;;;21.35;56.19
6144;BME280;3103;49.492;8.474;2022-09-09T11:46:31;100140.94;;;21.29;55.94
6144;BME280;3103;49.492;8.474;2022-09-09T11:49:03;100130.06;;;20.98;56.42
6144;BME280;3103;49.492;8.474;2022-09-09T11:51:31;100129.13;;;21.03;56.33
6144;BME280;3103;49.492;8.474;2022-09-09T11:54:01;100136.94;;;20.96;56.69
6144;BME280;3103;49.492;8.474;2022-09-09T11:56:42;100126.72;;;21.10;55.85
6144;BME280;3103;49.492;8.474;2022-09-09T11:59:31;100125.47;;;21.16;55.31
6144;BME280;3103;49.492;8.474;2022-09-09T12:01:59;100129.81;;;21.17;55.74
6144;BME280;3103;49.492;8.474;2022-09-09T12:04:35;100130.66;;;21.35;54.93
6144;BME280;3103;49.492;8.474;2022-09-09T12:12:36;100144.50;;;21.30;52.82
6144;BME280;3103;49.492;8.474;2022-09-09T12:17:45;100183.94;;;21.15;51.62
6144;BME280;3103;49.492;8.474;2022-09-09T12:20:40;100193.94;;;20.58;53.71
6144;BME280;3103;49.492;8.474;2022-09-09T12:23:27;100157.75;;;20.07;57.25
6144;BME280;3103;49.492;8.474;2022-09-09T12:26:27;100143.41;;;19.79;57.85
6144;BME280;3103;49.492;8.474;2022-09-09T12:29:12;100142.34;;;19.67;60.18
6144;BME280;3103;49.492;8.474;2022-09-09T12:31:56;100157.97;;;19.75;59.98
6144;BME280;3103;49.492;8.474;2022-09-09T12:34:40;100168.19;;;19.55;59.74
6144;BME280;3103;49.492;8.474;2022-09-09T12:38:09;100143.41;;;18.88;68.72
6144;BME280;3103;49.492;8.474;2022-09-09T12:40:20;100156.28;;;18.83;69.63
6144;BME280;3103;49.492;8.474;2022-09-09T12:42:48;100147.75;;;18.89;70.14
6144;BME280;3103;49.492;8.474;2022-09-09T12:45:19;100144.31;;;18.97;72.48
6144;BME280;3103;49.492;8.474;2022-09-09T12:47:56;100138.56;;;19.13;73.42
6144;BME280;3103;49.492;8.474;2022-09-09T12:50:27;100136.44;;;19.23;73.97
6144;BME280;3103;49.492;8.474;2022-09-09T12:52:58;100141.47;;;19.44;74.63
6144;BME280;3103;49.492;8.474;2022-09-09T12:55:32;100140.44;;;19.53;74.74
6144;BME280;3103;49.492;8.474;2022-09-09T12:58:01;100133.53;;;19.70;74.24
6144;BME280;3103;49.492;8.474;2022-09-09T13:00:32;100131.59;;;19.84;73.58
6144;BME280;3103;49.492;8.474;2022-09-09T13:03:16;100135.56;;;19.78;74.15
6144;BME280;3103;49.492;8.474;2022-09-09T13:05:43;100140.66;;;19.57;73.87
6144;BME280;3103;49.492;8.474;2022-09-09T13:08:11;100157.22;;;19.61;72.20
6144;BME280;3103;49.492;8.474;2022-09-09T13:10:43;100161.22;;;19.49;73.90
6144;BME280;3103;49.492;8.474;2022-09-09T13:13:23;100165.47;;;19.28;74.03
6144;BME280;3103;49.492;8.474;2022-09-09T13:15:54;100171.03;;;19.23;76.30
6144;BME280;3103;49.492;8.474;2022-09-09T13:18:27;100169.91;;;19.24;77.95
6144;BME280;3103;49.492;8.474;2022-09-09T13:20:55;100167.94;;;19.16;78.26
6144;BME280;3103;49.492;8.474;2022-09-09T13:23:28;100156.63;;;19.09;76.75
6144;BME280;3103;49.492;8.474;2022-09-09T13:26:02;100151.88;;;19.01;75.86
6144;BME280;3103;49.492;8.474;2022-09-09T13:28:30;100146.03;;;18.93;73.78
6144;BME280;3103;49.492;8.474;2022-09-09T13:31:05;100135.56;;;18.87;77.08
6144;BME280;3103;49.492;8.474;2022-09-09T13:33:45;100118.59;;;19.04;75.31
6144;BME280;3103;49.492;8.474;2022-09-09T13:36:12;100142.88;;;19.27;72.18
6144;BME280;3103;49.492;8.474;2022-09-09T13:38:54;100141.38;;;19.35;71.79
6144;BME280;3103;49.492;8.474;2022-09-09T13:41:24;100143.09;;;19.59;70.32
6144;BME280;3103;49.492;8.474;2022-09-09T13:43:52;100141.47;;;19.58;70.08
6144;BME280;3103;49.492;8.474;2022-09-09T13:46:38;100135.22;;;19.57;70.61
6144;BME280;3103;49.492;8.474;2022-09-09T13:51:43;100133.53;;;20.06;70.52
6144;BME280;3103;49.492;8.474;2022-09-09T13:54:13;100143.44;;;20.24;71.37
6144;BME280;3103;49.492;8.474;2022-09-09T13:56:41;100144.25;;;20.25;71.59
6144;BME280;3103;49.492;8.474;2022-09-09T13:59:16;100139.41;;;20.22;71.26
6144;BME280;3103;49.492;8.474;2022-09-09T14:01:45;100141.59;;;20.33;70.64
6144;BME280;3103;49.492;8.474;2022-09-09T14:04:12;100130.88;;;20.68;69.21
6144;BME280;3103;49.492;8.474;2022-09-09T14:06:39;100129.06;;;20.86;67.54
6144;BME280;3103;49.492;8.474;2022-09-09T14:09:09;100124.56;;;21.29;66.30
6144;BME280;3103;49.492;8.474;2022-09-09T14:11:36;100115.91;;;21.62;64.99
6144;BME280;3103;49.492;8.474;2022-09-09T14:14:06;100111.41;;;21.66;63.99
6144;BME280;3103;49.492;8.474;2022-09-09T14:16:33;100108.84;;;21.87;62.04
6144;BME280;3103;49.492;8.474;2022-09-09T14:19:00;100102.41;;;22.09;59.20
6144;BME280;3103;49.492;8.474;2022-09-09T14:21:27;100107.88;;;22.17;59.06
6144;BME280;3103;49.492;8.474;2022-09-09T14:23:55;100101.44;;;22.05;59.00
6144;BME280;3103;49.492;8.474;2022-09-09T14:26:21;100095.00;;;22.01;58.17
6144;BME280;3103;49.492;8.474;2022-09-09T14:28:48;100089.97;;;22.37;57.35
6144;BME280;3103;49.492;8.474;2022-09-09T14:31:24;100096.22;;;22.93;52.75
6144;BME280;3103;49.492;8.474;2022-09-09T14:33:52;100100.94;;;22.84;53.52
6144;BME280;3103;49.492;8.474;2022-09-09T14:36:19;100102.09;;;22.66;53.81
6144;BME280;3103;49.492;8.474;2022-09-09T14:38:46;100097.53;;;22.40;54.70
6144;BME280;3103;49.492;8.474;2022-09-09T14:41:16;100104.50;;;21.86;55.40
6144;BME280;3103;49.492;8.474;2022-09-09T14:43:46;100102.56;;;21.43;57.56
6144;BME280;3103;49.492;8.474;2022-09-09T14:46:15;100096.69;;;21.19;58.27
6144;BME280;3103;49.492;8.474;2022-09-09T14:48:43;100091.84;;;21.07;59.44
6144;BME280;3103;49.492;8.474;2022-09-09T14:51:17;100087.66;;;21.01;59.07
6144;BME280;3103;49.492;8.474;2022-09-09T14:53:44;100098.75;;;21.04;59.83
6144;BME280;3103;49.492;8.474;2022-09-09T14:56:16;100093.91;;;20.93;61.82
6144;BME280;3103;49.492;8.474;2022-09-09T14:58:43;100113.72;;;21.24;62.46
6144;BME280;3103;49.492;8.474;2022-09-09T15:01:13;100101.00;;;21.11;60.78
6144;BME280;3103;49.492;8.474;2022-09-09T15:03:41;100100.66;;;20.95;63.32
6144;BME280;3103;49.492;8.474;2022-09-09T15:06:11;100103.13;;;21.23;59.96
6144;BME280;3103;49.492;8.474;2022-09-09T15:08:40;100107.69;;;20.88;60.53
6144;BME280;3103;49.492;8.474;2022-09-09T15:11:09;100116.19;;;20.47;61.11
6144;BME280;3103;49.492;8.474;2022-09-09T15:13:38;100133.41;;;20.11;62.89
6144;BME280;3103;49.492;8.474;2022-09-09T15:16:16;100143.06;;;19.95;64.70
6144;BME280;3103;49.492;8.474;2022-09-09T15:18:45;100144.16;;;19.71;64.95
6144;BME280;3103;49.492;8.474;2022-09-09T15:21:17;100142.88;;;19.27;67.11